Time;durP1;ratioP1;P1;durP2;ratioP2;P2;SDS_P1;SDS_P2;PMS_P1;PMS_P2;Temp;Humidity;BMP_temperature;BMP_pressure;BME280_temperature;BME280_humidity;BME280_pressure;Samples;Min_cycle;Max_cycle;Signal;HPM_P1;HPM_P2
2023/02/26 00:01:26;;;;;;;11.60;5.07;;;;;;;2.89;69.49;99106.41;1397415;87;21806;-84
2023/02/26 00:03:55;;;;;;;12.55;5.42;;;;;;;2.89;69.49;99106.41;1399330;88;21747;-84
2023/02/26 00:06:24;;;;;;;9.13;5.00;;;;;;;2.90;69.62;99109.85;1394691;87;21251;-83
2023/02/26 00:08:50;;;;;;;10.43;4.50;;;;;;;2.87;70.45;99095.74;1399747;88;21605;-83
2023/02/26 00:11:17;;;;;;;9.60;5.83;;;;;;;2.84;69.80;99083.77;1393573;88;21797;-83
2023/02/26 00:13:44;;;;;;;13.63;6.20;;;;;;;2.84;69.80;99083.77;1397383;87;21641;-84
2023/02/26 00:16:33;;;;;;;11.90;5.30;;;;;;;2.81;70.57;99075.36;1403228;87;21585;-82
2023/02/26 00:19:03;;;;;;;12.57;5.80;;;;;;;2.78;70.51;99073.02;1515797;88;22494;-82
2023/02/26 00:21:31;;;;;;;13.98;6.65;;;;;;;2.74;71.43;99070.33;1471848;88;21778;-84
2023/02/26 00:23:59;;;;;;;13.10;6.20;;;;;;;2.69;71.31;99073.32;1472603;88;21592;-83
2023/02/26 00:26:26;;;;;;;13.80;6.17;;;;;;;2.64;71.41;99080.23;1474553;88;21662;-84
2023/02/26 00:28:53;;;;;;;10.87;6.03;;;;;;;2.61;71.18;99088.33;1397606;88;21432;-83
2023/02/26 00:31:23;;;;;;;15.20;6.10;;;;;;;2.58;71.45;99092.50;1396585;88;21464;-83
2023/02/26 00:33:48;;;;;;;18.80;7.20;;;;;;;2.58;71.17;99091.20;1551138;88;22382;-83
2023/02/26 00:37:01;;;;;;;12.20;5.53;;;;;;;2.58;71.19;99097.73;1396718;87;21659;-82
2023/02/26 00:39:51;;;;;;;10.43;5.10;;;;;;;2.57;71.66;99085.64;1379060;89;21591;-84
2023/02/26 00:42:18;;;;;;;9.10;4.80;;;;;;;2.55;72.15;99094.56;1353666;93;21966;-84
2023/02/26 00:44:45;;;;;;;7.47;4.37;;;;;;;2.51;72.15;99103.14;1379680;90;21742;-82
2023/02/26 00:47:41;;;;;;;9.60;5.67;;;;;;;2.53;71.96;99109.52;1532601;89;21420;-83
2023/02/26 00:50:25;;;;;;;12.13;5.33;;;;;;;2.53;71.96;99109.52;1531641;89;21536;-83
2023/02/26 00:53:12;;;;;;;18.17;6.77;;;;;;;2.55;72.10;99107.62;1374126;89;21436;-83
2023/02/26 00:55:38;;;;;;;16.63;6.57;;;;;;;2.58;71.86;99091.69;1531351;89;21797;-83
2023/02/26 00:58:05;;;;;;;19.93;7.60;;;;;;;2.61;72.07;99096.16;1381836;90;21576;-84
2023/02/26 01:00:32;;;;;;;17.53;7.00;;;;;;;2.62;71.62;99101.76;1376266;89;21499;-84
2023/02/26 01:02:58;;;;;;;18.30;7.80;;;;;;;2.62;71.85;99097.02;1381037;90;22625;-83
2023/02/26 01:05:25;;;;;;;20.30;10.23;;;;;;;2.61;71.28;99090.94;1376048;89;21577;-82
2023/02/26 01:08:12;;;;;;;20.40;10.57;;;;;;;2.59;71.32;99090.72;1375286;90;22386;-81
2023/02/26 01:10:39;;;;;;;19.80;9.63;;;;;;;2.57;71.31;99088.25;1512908;90;21545;-83
2023/02/26 01:13:06;;;;;;;26.83;10.30;;;;;;;2.58;72.17;99090.38;1375199;89;22369;-82
2023/02/26 01:15:33;;;;;;;24.80;11.30;;;;;;;2.60;72.20;99089.30;1381882;89;21510;-81
2023/02/26 01:18:20;;;;;;;25.83;12.87;;;;;;;2.59;72.18;99091.57;1447525;89;21594;-83
2023/02/26 01:20:57;;;;;;;20.37;9.03;;;;;;;2.61;71.98;99105.30;1451685;89;22388;-83
2023/02/26 01:23:26;;;;;;;14.83;6.90;;;;;;;2.59;71.86;99103.33;1449131;89;22484;-82
2023/02/26 01:26:06;;;;;;;14.23;7.27;;;;;;;2.57;72.21;99112.24;1447396;89;21547;-82
2023/02/26 01:28:33;;;;;;;15.13;6.78;;;;;;;2.52;72.72;99128.28;1452919;90;21720;-81
2023/02/26 01:31:04;;;;;;;11.47;6.30;;;;;;;2.48;73.18;99133.43;1448186;89;21497;-83
2023/02/26 01:33:45;;;;;;;12.23;6.60;;;;;;;2.47;72.49;99131.75;1449505;89;22086;-84
2023/02/26 01:36:24;;;;;;;11.28;5.62;;;;;;;2.46;72.05;99130.11;1453068;90;21708;-84
2023/02/26 01:39:07;;;;;;;11.00;5.90;;;;;;;2.44;72.72;99128.09;1449004;89;21813;-82
2023/02/26 01:41:46;;;;;;;13.87;5.93;;;;;;;2.42;73.74;99127.41;1470411;87;22725;-82
2023/02/26 01:44:37;;;;;;;12.07;6.47;;;;;;;2.41;74.00;99113.98;1476660;87;21865;-82
2023/02/26 01:47:33;;;;;;;13.93;7.15;;;;;;;2.43;73.99;99108.99;1474455;88;21669;-84
2023/02/26 01:50:11;;;;;;;16.27;7.93;;;;;;;2.47;73.79;99109.55;1473738;88;21411;-84
2023/02/26 01:53:12;;;;;;;13.73;6.73;;;;;;;2.43;75.15;99108.17;1473975;88;21781;-82
2023/02/26 01:55:42;;;;;;;17.10;7.62;;;;;;;2.37;75.76;99111.30;1470977;88;21584;-83
2023/02/26 01:58:08;;;;;;;15.53;6.87;;;;;;;2.31;75.24;99106.10;1474218;88;21385;-82
2023/02/26 02:00:34;;;;;;;14.67;7.33;;;;;;;2.26;75.42;99103.86;1479572;87;22496;-82
2023/02/26 02:03:01;;;;;;;12.20;6.37;;;;;;;2.23;76.04;99101.98;1476087;88;21811;-84
2023/02/26 02:05:40;;;;;;;12.17;6.30;;;;;;;2.20;75.65;99097.84;1476521;88;21577;-83
2023/02/26 02:08:06;;;;;;;9.13;5.77;;;;;;;2.13;77.23;99095.86;1468835;88;22584;-83
2023/02/26 02:10:33;;;;;;;13.63;5.87;;;;;;;2.10;77.68;99093.05;1470360;87;21593;-84
2023/02/26 02:13:28;;;;;;;10.90;5.40;;;;;;;2.12;76.58;99097.64;1474280;87;21832;-84
2023/02/26 02:16:20;;;;;;;16.63;6.40;;;;;;;2.15;76.39;99092.17;1474305;87;21643;-84
2023/02/26 02:19:16;;;;;;;10.00;5.73;;;;;;;2.19;77.33;99089.67;1478290;88;21737;-83
2023/02/26 02:22:10;;;;;;;12.43;5.60;;;;;;;2.17;77.87;99100.71;1470705;87;22630;-83
2023/02/26 02:25:12;;;;;;;14.10;6.70;;;;;;;2.11;78.29;99112.96;1474597;87;21654;-84
2023/02/26 02:27:54;;;;;;;14.43;6.20;;;;;;;2.03;78.10;99124.02;1476005;88;21666;-81
2023/02/26 02:30:49;;;;;;;10.10;5.62;;;;;;;1.93;80.10;99127.04;1474978;88;21704;-81
2023/02/26 02:33:19;;;;;;;12.30;5.60;;;;;;;1.88;79.83;99136.19;1474649;87;21404;-83
2023/02/26 02:35:51;;;;;;;13.60;7.60;;;;;;;1.79;78.37;99130.76;1474304;87;21673;-83
2023/02/26 02:38:22;;;;;;;16.97;7.70;;;;;;;1.80;77.27;99137.63;1475557;88;21389;-84
2023/02/26 02:40:53;;;;;;;9.43;5.78;;;;;;;1.82;78.41;99139.30;1477043;88;21708;-82
2023/02/26 02:43:32;;;;;;;8.17;5.10;;;;;;;1.86;78.17;99147.22;1466990;87;21545;-83
2023/02/26 02:46:06;;;;;;;18.30;8.20;;;;;;;1.91;77.87;99155.03;1475461;87;21533;-84
2023/02/26 02:48:49;;;;;;;11.93;6.57;;;;;;;1.92;78.38;99153.25;1474246;88;21719;-83
2023/02/26 02:51:42;;;;;;;12.23;7.07;;;;;;;1.92;78.71;99159.28;1472777;87;21580;-83
2023/02/26 02:54:23;;;;;;;15.43;7.30;;;;;;;1.87;79.46;99156.24;1472787;87;21616;-83
2023/02/26 02:56:58;;;;;;;12.07;6.25;;;;;;;1.81;79.58;99156.70;1463874;88;22652;-81
2023/02/26 02:59:42;;;;;;;10.73;6.10;;;;;;;1.75;79.80;99147.59;1473934;88;22381;-84
2023/02/26 03:02:22;;;;;;;11.50;6.13;;;;;;;1.72;80.05;99158.27;1475905;87;23002;-83
2023/02/26 03:04:49;;;;;;;12.43;6.20;;;;;;;1.72;80.31;99150.45;1471117;88;21820;-83
2023/02/26 03:07:15;;;;;;;8.30;5.47;;;;;;;1.74;80.37;99151.16;1470523;88;22553;-84
2023/02/26 03:09:42;;;;;;;15.27;7.00;;;;;;;1.77;80.40;99161.34;1472957;88;21631;-84
2023/02/26 03:12:08;;;;;;;11.13;5.03;;;;;;;1.78;80.43;99156.95;1475116;88;21764;-82
2023/02/26 03:14:35;;;;;;;11.57;5.93;;;;;;;1.78;80.09;99168.24;1475441;88;22467;-81
2023/02/26 03:17:28;;;;;;;12.43;5.50;;;;;;;1.78;80.43;99173.46;1468969;87;21636;-83
2023/02/26 03:20:36;;;;;;;12.60;7.37;;;;;;;1.77;80.62;99173.57;1473145;87;22545;-83
2023/02/26 03:23:19;;;;;;;11.27;6.03;;;;;;;1.74;80.08;99174.64;1477895;87;21822;-83
2023/02/26 03:25:56;;;;;;;9.40;5.30;;;;;;;1.70;80.72;99170.63;1470642;87;21660;-84
2023/02/26 03:28:43;;;;;;;10.60;5.33;;;;;;;1.58;81.55;99168.52;1474751;88;21711;-83
2023/02/26 03:31:20;;;;;;;9.23;5.07;;;;;;;1.47;82.39;99175.53;1473404;88;21824;-82
2023/02/26 03:33:57;;;;;;;8.93;4.77;;;;;;;1.44;81.73;99189.63;1470707;87;22671;-83
2023/02/26 03:36:35;;;;;;;8.70;5.13;;;;;;;1.46;81.28;99182.98;1477094;88;21778;-84
2023/02/26 03:39:19;;;;;;;7.33;4.20;;;;;;;1.47;81.75;99182.05;1475331;88;21712;-84
2023/02/26 03:42:16;;;;;;;9.90;4.93;;;;;;;1.50;81.45;99175.29;1465960;88;22563;-83
2023/02/26 03:45:00;;;;;;;9.37;4.87;;;;;;;1.55;81.06;99177.03;1398990;87;21735;-83
2023/02/26 03:47:29;;;;;;;8.23;5.33;;;;;;;1.61;81.35;99195.28;1552768;87;21459;-79
2023/02/26 03:50:04;;;;;;;9.70;6.03;;;;;;;1.65;80.71;99181.89;1559195;87;21330;-83
2023/02/26 03:52:34;;;;;;;11.53;5.90;;;;;;;1.71;80.54;99186.63;1395050;88;21641;-83
2023/02/26 03:55:06;;;;;;;8.15;4.83;;;;;;;1.74;80.84;99198.59;1400227;87;21593;-83
2023/02/26 03:57:32;;;;;;;9.37;6.07;;;;;;;1.71;80.95;99201.45;1396224;87;21405;-83
2023/02/26 03:59:58;;;;;;;8.00;5.07;;;;;;;1.69;80.47;99205.47;1441139;88;21781;-84
2023/02/26 04:02:33;;;;;;;6.43;3.50;;;;;;;1.67;80.74;99213.91;1473454;88;21477;-82
2023/02/26 04:05:04;;;;;;;8.73;4.63;;;;;;;1.68;80.36;99214.25;1425814;88;22407;-83
2023/02/26 04:07:31;;;;;;;6.90;4.73;;;;;;;1.69;80.31;99208.08;1472005;87;22533;-84
2023/02/26 04:09:57;;;;;;;10.27;5.07;;;;;;;1.71;80.15;99203.58;1463893;88;21600;-83
2023/02/26 04:12:26;;;;;;;8.13;4.63;;;;;;;1.74;80.23;99205.94;1473645;88;21623;-82
2023/02/26 04:14:57;;;;;;;6.73;4.00;;;;;;;1.78;80.49;99213.05;1461513;88;21545;-83
2023/02/26 04:17:24;;;;;;;7.50;4.05;;;;;;;1.80;80.09;99217.19;1470455;87;21519;-83
2023/02/26 04:19:51;;;;;;;7.93;4.60;;;;;;;1.83;80.16;99222.64;1473531;88;22329;-83
2023/02/26 04:22:17;;;;;;;9.47;5.30;;;;;;;1.85;80.11;99223.36;1472376;88;22408;-83
2023/02/26 04:24:43;;;;;;;8.87;5.13;;;;;;;1.87;79.69;99235.82;1470736;87;21623;-84
2023/02/26 04:27:09;;;;;;;7.47;4.67;;;;;;;1.87;79.72;99229.75;1476272;87;21735;-83
2023/02/26 04:29:36;;;;;;;8.17;4.77;;;;;;;1.86;79.41;99223.70;1468730;88;21628;-83
2023/02/26 04:32:02;;;;;;;10.47;4.80;;;;;;;1.89;79.15;99219.55;1470773;88;22647;-84
2023/02/26 04:34:28;;;;;;;10.90;5.23;;;;;;;1.89;79.12;99223.46;1477514;88;21644;-84
2023/02/26 04:36:55;;;;;;;7.57;4.83;;;;;;;1.86;80.29;99227.62;1473849;88;21602;-84
2023/02/26 04:39:21;;;;;;;10.97;5.97;;;;;;;1.86;80.25;99239.84;1476513;88;21912;-83
2023/02/26 04:41:47;;;;;;;9.87;5.30;;;;;;;1.87;79.89;99254.09;1476587;87;21906;-84
2023/02/26 04:44:14;;;;;;;11.03;5.50;;;;;;;1.92;79.76;99258.92;1474993;87;21530;-83
2023/02/26 04:46:40;;;;;;;16.10;8.23;;;;;;;1.94;79.73;99266.98;1475991;87;21486;-83
2023/02/26 04:49:06;;;;;;;15.43;6.77;;;;;;;1.98;79.50;99266.27;1474783;87;21680;-84
2023/02/26 04:51:32;;;;;;;18.10;9.77;;;;;;;1.95;80.41;99278.25;1472641;87;21711;-83
2023/02/26 04:53:58;;;;;;;19.47;9.53;;;;;;;1.90;80.30;99286.91;1472466;88;21770;-84
2023/02/26 04:56:25;;;;;;;26.40;12.87;;;;;;;1.84;80.00;99296.52;1468338;88;21714;-84
2023/02/26 04:58:51;;;;;;;22.93;12.30;;;;;;;1.84;80.00;99296.52;1475178;88;21852;-82
2023/02/26 05:01:18;;;;;;;17.70;9.67;;;;;;;1.84;80.24;99279.56;1476905;87;21550;-82
2023/02/26 05:03:44;;;;;;;18.17;9.53;;;;;;;1.84;81.03;99284.30;1472374;87;22144;-84
2023/02/26 05:06:10;;;;;;;18.47;10.67;;;;;;;1.84;81.27;99282.17;1473309;87;21551;-83
2023/02/26 05:08:40;;;;;;;24.80;13.67;;;;;;;1.83;80.78;99285.27;1468356;87;21833;-82
2023/02/26 05:11:05;;;;;;;26.20;14.40;;;;;;;1.83;80.27;99286.56;1474078;87;21633;-83
2023/02/26 05:13:31;;;;;;;26.27;15.57;;;;;;;1.84;80.61;99278.27;1473285;87;21595;-81
2023/02/26 05:15:57;;;;;;;27.67;13.97;;;;;;;1.85;80.20;99292.98;1473146;87;21669;-83
2023/02/26 05:18:23;;;;;;;21.93;12.40;;;;;;;1.85;80.55;99281.24;1474800;87;21602;-83
2023/02/26 05:20:54;;;;;;;23.17;12.30;;;;;;;1.84;81.96;99278.27;1474790;87;21640;-83
2023/02/26 05:23:20;;;;;;;;;;;;;;;1.77;82.43;99297.00;1478692;87;21456;-82
2023/02/26 05:25:47;;;;;;;26.60;13.30;;;;;;;1.71;82.47;99297.48;1472033;87;20289;-83
2023/02/26 05:28:14;;;;;;;15.60;8.17;;;;;;;1.71;82.47;99297.48;1468684;88;22023;-84
2023/02/26 05:30:41;;;;;;;11.23;6.00;;;;;;;1.65;84.27;99305.79;1470104;88;21740;-82
2023/02/26 05:33:08;;;;;;;8.07;4.80;;;;;;;1.64;83.52;99311.96;1474190;87;21434;-84
2023/02/26 05:35:34;;;;;;;9.43;5.60;;;;;;;1.64;83.44;99315.02;1474100;88;21684;-83
2023/02/26 05:38:00;;;;;;;9.97;5.67;;;;;;;1.69;82.84;99303.77;1471640;88;21694;-84
2023/02/26 05:40:27;;;;;;;9.53;5.47;;;;;;;1.72;82.71;99296.52;1473600;88;21811;-83
2023/02/26 05:42:53;;;;;;;7.83;5.03;;;;;;;1.75;82.65;99300.67;1474760;88;21625;-84
2023/02/26 05:45:19;;;;;;;9.03;4.60;;;;;;;1.69;83.58;99309.80;1476377;87;21581;-80
2023/02/26 05:47:46;;;;;;;12.53;5.83;;;;;;;1.67;83.29;99306.51;1474550;88;21727;-82
2023/02/26 05:50:12;;;;;;;10.27;6.13;;;;;;;1.62;83.58;99325.59;1472317;88;21558;-83
2023/02/26 05:52:38;;;;;;;8.33;5.00;;;;;;;1.64;82.64;99328.06;1475507;87;22241;-83
2023/02/26 05:55:07;;;;;;;8.00;4.47;;;;;;;1.66;82.48;99323.09;1476336;87;21683;-83
2023/02/26 05:57:33;;;;;;;7.00;4.73;;;;;;;1.65;83.22;99322.74;1395428;88;21640;-84
2023/02/26 05:59:59;;;;;;;10.17;4.90;;;;;;;1.59;84.25;99331.04;1397135;88;21552;-84
2023/02/26 06:02:26;;;;;;;7.47;4.80;;;;;;;1.57;84.92;99352.48;1397918;88;21659;-84
2023/02/26 06:04:52;;;;;;;10.37;4.93;;;;;;;1.59;84.50;99355.81;1397881;88;21544;-82
2023/02/26 06:07:18;;;;;;;7.03;4.23;;;;;;;1.60;84.27;99359.25;1403307;87;21591;-83
2023/02/26 06:09:44;;;;;;;10.47;5.23;;;;;;;1.60;83.58;99370.51;1396937;88;21542;-83
2023/02/26 06:12:10;;;;;;;9.20;5.53;;;;;;;1.59;83.36;99363.64;1391928;89;21387;-82
2023/02/26 06:14:37;;;;;;;8.33;5.30;;;;;;;1.54;84.84;99364.45;1404381;88;22396;-83
2023/02/26 06:17:04;;;;;;;6.97;4.63;;;;;;;1.56;84.55;99369.09;1398708;88;21455;-82
2023/02/26 06:19:30;;;;;;;14.40;4.80;;;;;;;1.56;85.38;99377.73;1403342;87;21549;-82
2023/02/26 06:21:57;;;;;;;7.57;4.60;;;;;;;1.54;86.14;99391.84;1486309;88;21767;-82
2023/02/26 06:24:23;;;;;;;11.00;5.13;;;;;;;1.54;85.57;99390.53;1473808;88;22448;-81
2023/02/26 06:26:49;;;;;;;9.13;5.23;;;;;;;1.58;85.47;99385.44;1472759;87;21557;-81
2023/02/26 06:29:17;;;;;;;10.37;5.60;;;;;;;1.62;84.84;99390.79;1474060;88;21743;-83
2023/02/26 06:31:44;;;;;;;8.60;4.70;;;;;;;1.58;85.27;99381.52;1473516;88;21604;-82
2023/02/26 06:34:10;;;;;;;9.17;5.83;;;;;;;1.50;86.93;99391.72;1470169;87;21768;-81
2023/02/26 06:36:37;;;;;;;8.43;5.33;;;;;;;1.53;86.46;99399.31;1466793;88;21670;-84
2023/02/26 06:39:03;;;;;;;9.57;4.60;;;;;;;1.54;87.08;99413.52;1471257;87;21618;-82
2023/02/26 06:41:30;;;;;;;13.50;5.70;;;;;;;1.56;87.10;99419.95;1466698;88;22578;-83
2023/02/26 06:43:57;;;;;;;9.03;5.90;;;;;;;1.55;87.35;99417.81;1474378;87;21776;-84
2023/02/26 06:46:23;;;;;;;9.63;5.97;;;;;;;1.54;87.65;99423.13;1473309;87;21600;-83
2023/02/26 06:48:49;;;;;;;8.83;5.43;;;;;;;1.53;87.85;99432.73;1471670;88;21396;-80
2023/02/26 06:51:16;;;;;;;10.03;5.73;;;;;;;1.54;87.55;99434.87;1473313;87;21551;-81
2023/02/26 06:53:42;;;;;;;8.27;4.67;;;;;;;1.55;87.80;99432.61;1473067;88;22666;-84
2023/02/26 06:56:08;;;;;;;6.73;4.70;;;;;;;1.55;87.86;99427.39;1475312;87;22484;-83
2023/02/26 06:58:34;;;;;;;7.67;5.40;;;;;;;1.54;88.61;99421.83;1475074;88;21805;-81
2023/02/26 07:01:03;;;;;;;8.83;5.43;;;;;;;1.55;88.34;99420.88;1472774;87;21620;-83
2023/02/26 07:03:30;;;;;;;10.40;5.37;;;;;;;1.50;88.53;99420.41;1400195;88;21582;-85
2023/02/26 07:05:57;;;;;;;7.43;4.80;;;;;;;1.58;88.17;99423.25;1557176;88;21578;-84
2023/02/26 07:08:23;;;;;;;9.10;5.37;;;;;;;1.57;88.00;99433.33;1397536;88;21443;-82
2023/02/26 07:10:50;;;;;;;7.20;4.37;;;;;;;1.67;87.58;99430.41;1403989;87;21529;-84
2023/02/26 07:13:16;;;;;;;7.97;5.07;;;;;;;1.68;86.35;99433.84;1397544;88;22343;-79
2023/02/26 07:15:43;;;;;;;9.23;4.43;;;;;;;1.80;84.52;99440.26;1396932;88;21552;-80
2023/02/26 07:18:09;;;;;;;9.60;4.37;;;;;;;1.92;83.74;99448.11;1397650;88;21485;-82
2023/02/26 07:20:35;;;;;;;7.03;3.67;;;;;;;2.00;80.99;99454.88;1397371;88;21526;-82
2023/02/26 07:23:02;;;;;;;4.63;2.97;;;;;;;2.13;80.25;99466.06;1404235;88;21733;-81
2023/02/26 07:25:28;;;;;;;5.23;3.30;;;;;;;2.23;79.34;99461.78;1391430;88;21558;-83
2023/02/26 07:27:55;;;;;;;6.00;3.53;;;;;;;2.30;78.74;99456.91;1396998;87;21599;-83
2023/02/26 07:30:21;;;;;;;4.47;3.13;;;;;;;2.35;78.71;99459.17;1397632;87;21448;-82
2023/02/26 07:32:48;;;;;;;4.17;2.93;;;;;;;2.35;77.88;99460.48;1397160;87;21417;-81
2023/02/26 07:35:14;;;;;;;5.20;3.27;;;;;;;2.46;77.32;99489.21;1394483;88;21704;-83
2023/02/26 07:37:40;;;;;;;4.50;3.07;;;;;;;2.46;77.32;99489.21;1394887;87;21691;-84
2023/02/26 07:40:09;;;;;;;8.93;3.00;;;;;;;2.42;76.85;99479.97;1398208;88;22433;-83
2023/02/26 07:42:35;;;;;;;4.77;2.97;;;;;;;2.48;77.42;99469.04;1415210;87;21645;-81
2023/02/26 07:45:01;;;;;;;10.30;4.73;;;;;;;2.45;77.56;99478.42;1392400;88;21724;-81
2023/02/26 07:47:29;;;;;;;5.93;3.83;;;;;;;2.42;77.74;99472.12;1398977;88;21556;-82
2023/02/26 07:49:56;;;;;;;4.67;3.17;;;;;;;2.41;77.90;99475.19;1395871;88;21805;-82
2023/02/26 07:52:23;;;;;;;5.97;3.63;;;;;;;2.44;78.21;99474.95;1395638;87;21666;-83
2023/02/26 07:54:49;;;;;;;5.70;3.93;;;;;;;2.50;78.39;99474.95;1403076;87;21639;-83
2023/02/26 07:57:15;;;;;;;8.13;3.73;;;;;;;2.50;78.39;99474.95;1556961;87;21483;-83
2023/02/26 07:59:41;;;;;;;6.57;4.10;;;;;;;2.48;79.24;99459.42;1397295;87;21759;-83
2023/02/26 08:02:09;;;;;;;6.57;3.67;;;;;;;2.44;79.42;99457.15;1403078;88;21762;-83
2023/02/26 08:04:35;;;;;;;5.70;3.67;;;;;;;2.44;79.42;99457.15;1395837;88;21710;-83
2023/02/26 08:07:01;;;;;;;6.07;4.10;;;;;;;2.37;80.50;99466.42;1397432;87;21718;-84
2023/02/26 08:09:29;;;;;;;5.00;3.40;;;;;;;2.36;80.68;99481.72;1398334;88;21593;-80
2023/02/26 08:11:57;;;;;;;5.93;3.60;;;;;;;2.50;80.99;99486.70;1547991;88;21792;-84
2023/02/26 08:14:23;;;;;;;6.33;4.20;;;;;;;2.50;80.99;99486.70;1403578;88;21880;-83
2023/02/26 08:16:52;;;;;;;7.00;3.60;;;;;;;2.62;80.19;99504.06;1399045;87;21686;-84
2023/02/26 08:19:18;;;;;;;4.70;3.40;;;;;;;2.63;80.06;99486.12;1395965;87;21606;-82
2023/02/26 08:21:45;;;;;;;4.37;2.93;;;;;;;2.63;80.06;99486.12;1403946;88;21729;-82
2023/02/26 08:24:12;;;;;;;5.83;3.03;;;;;;;2.56;79.35;99473.20;1397426;87;22614;-82
2023/02/26 08:26:38;;;;;;;4.70;3.40;;;;;;;2.57;79.10;99483.98;1403142;88;22511;-82
2023/02/26 08:29:05;;;;;;;4.90;3.33;;;;;;;2.60;78.84;99485.53;1551609;88;21720;-80
2023/02/26 08:31:33;;;;;;;6.57;3.80;;;;;;;2.63;79.25;99495.27;1397293;87;21696;-81
2023/02/26 08:34:00;;;;;;;4.50;3.20;;;;;;;2.57;79.00;99494.44;1402815;87;21937;-82
2023/02/26 08:36:26;;;;;;;8.60;4.47;;;;;;;2.57;79.00;99494.44;1397628;88;21591;-83
2023/02/26 08:38:53;;;;;;;8.07;4.40;;;;;;;2.59;79.65;99501.69;1397979;87;21807;-81
2023/02/26 08:41:19;;;;;;;6.10;3.93;;;;;;;2.47;78.69;99511.76;1397794;87;21644;-84
2023/02/26 08:43:46;;;;;;;6.77;4.40;;;;;;;2.55;79.12;99523.76;1405252;88;21616;-80
2023/02/26 08:46:12;;;;;;;5.47;4.17;;;;;;;2.51;79.37;99522.34;1466572;88;22571;-81
2023/02/26 08:48:38;;;;;;;7.03;4.13;;;;;;;2.51;79.08;99521.04;1397467;87;21603;-81
2023/02/26 08:51:05;;;;;;;7.43;4.17;;;;;;;2.50;79.50;99529.80;1397343;88;21819;-81
2023/02/26 08:53:31;;;;;;;6.37;4.20;;;;;;;2.50;79.50;99529.80;1397022;87;22393;-83
2023/02/26 08:55:58;;;;;;;5.83;4.20;;;;;;;2.55;79.34;99530.77;1397383;87;21555;-82
2023/02/26 08:58:24;;;;;;;5.37;4.20;;;;;;;2.63;79.04;99525.31;1403082;88;22370;-81
2023/02/26 09:00:51;;;;;;;6.57;3.73;;;;;;;2.69;78.77;99524.83;1396884;87;22520;-81
2023/02/26 09:03:17;;;;;;;7.43;4.60;;;;;;;2.77;77.87;99528.16;1398111;88;21729;-82
2023/02/26 09:05:45;;;;;;;7.27;4.97;;;;;;;2.82;77.24;99531.70;1403747;88;21908;-82
2023/02/26 09:08:14;;;;;;;6.97;3.63;;;;;;;2.93;76.58;99525.16;1394218;87;21637;-82
2023/02/26 09:10:41;;;;;;;5.80;4.10;;;;;;;2.92;75.90;99545.72;1401889;87;21930;-83
2023/02/26 09:13:08;;;;;;;7.43;3.90;;;;;;;2.92;75.90;99545.72;1557706;88;21829;-81
2023/02/26 09:15:34;;;;;;;6.80;4.13;;;;;;;2.95;74.92;99555.94;1397171;87;21739;-81
2023/02/26 09:18:00;;;;;;;5.23;4.00;;;;;;;2.98;73.74;99558.31;1448893;88;21921;-80
2023/02/26 09:20:27;;;;;;;7.80;5.03;;;;;;;3.12;73.65;99573.74;1474398;88;21883;-82
2023/02/26 09:22:53;;;;;;;21.53;11.10;;;;;;;3.12;73.65;99573.74;1470494;87;23290;-82
2023/02/26 09:25:19;;;;;;;10.67;7.60;;;;;;;3.32;73.82;99575.27;1472612;88;22010;-80
2023/02/26 09:27:46;;;;;;;6.40;4.30;;;;;;;3.28;72.67;99567.29;1471435;87;22201;-81
2023/02/26 09:30:13;;;;;;;11.00;6.23;;;;;;;3.39;72.08;99576.42;1474224;88;22118;-82
2023/02/26 09:32:39;;;;;;;6.97;4.93;;;;;;;3.39;72.08;99576.42;1396322;88;22788;-79
2023/02/26 09:35:06;;;;;;;12.83;7.60;;;;;;;3.50;72.17;99579.02;1396975;88;21867;-79
2023/02/26 09:37:33;;;;;;;7.43;4.70;;;;;;;3.56;71.67;99569.36;1397113;88;21948;-82
2023/02/26 09:39:59;;;;;;;6.60;4.53;;;;;;;3.73;69.99;99577.64;1397063;87;22971;-80
2023/02/26 09:42:52;;;;;;;7.57;4.37;;;;;;;3.76;69.81;99582.63;1397697;88;21933;-82
2023/02/26 09:45:35;;;;;;;10.83;6.03;;;;;;;3.81;70.38;99587.02;1402951;87;22142;-81
2023/02/26 09:48:05;;;;;;;22.03;13.47;;;;;;;3.98;70.38;99588.26;1557437;87;21877;-81
2023/02/26 09:54:38;;;;;;;13.40;7.50;;;;;;;4.12;69.59;99591.88;1503334;90;22769;-79
2023/02/26 09:57:09;;;;;;;9.45;6.28;;;;;;;4.22;69.28;99586.70;1357286;91;22239;-83
2023/02/26 09:59:35;;;;;;;7.15;3.85;;;;;;;4.23;69.70;99592.28;1504135;91;22181;-81
2023/02/26 10:02:21;;;;;;;8.37;4.77;;;;;;;4.21;69.35;99592.28;1402111;91;21285;-80
2023/02/26 10:04:53;;;;;;;7.93;3.90;;;;;;;4.23;69.16;99592.28;1376250;91;21329;-81
2023/02/26 10:07:44;;;;;;;35.67;19.27;;;;;;;4.04;68.54;99589.88;1496782;91;21262;-80
2023/02/26 10:10:30;;;;;;;;;;;;;;;4.24;69.44;99583.00;1501015;91;21388;-81
2023/02/26 10:12:59;;;;;;;24.33;13.37;;;;;;;4.44;69.10;99608.02;1504036;91;20708;-80
2023/02/26 10:15:36;;;;;;;5.23;3.77;;;;;;;4.62;68.94;99604.33;1440535;91;21447;-81
2023/02/26 10:18:14;;;;;;;9.40;4.63;;;;;;;4.29;67.62;99614.89;1358145;91;21328;-81
2023/02/26 10:21:08;;;;;;;14.73;8.80;;;;;;;4.35;67.82;99607.00;1368195;91;21389;-81
2023/02/26 10:24:00;;;;;;;12.43;6.83;;;;;;;4.55;67.02;99600.58;1429729;91;21507;-82
2023/02/26 10:26:40;;;;;;;13.70;7.40;;;;;;;4.62;65.35;99603.02;1499013;91;21272;-80
2023/02/26 10:29:20;;;;;;;34.53;19.77;;;;;;;4.66;64.94;99607.88;1548223;88;21419;-79
2023/02/26 10:32:23;;;;;;;7.58;4.78;;;;;;;4.83;65.32;99620.84;1437930;88;21309;-81
2023/02/26 10:34:58;;;;;;;14.53;8.30;;;;;;;4.77;63.50;99610.88;1557578;88;21162;-82
2023/02/26 10:37:45;;;;;;;9.77;5.37;;;;;;;4.88;64.82;99609.98;1556701;87;21339;-80
2023/02/26 10:40:28;;;;;;;10.17;4.50;;;;;;;5.01;64.92;99609.29;1400394;88;22161;-82
2023/02/26 10:43:11;;;;;;;6.83;4.23;;;;;;;4.70;63.65;99630.24;1524280;87;22228;-82
2023/02/26 10:46:03;;;;;;;6.03;4.40;;;;;;;4.79;64.75;99626.50;1401438;88;22197;-81
2023/02/26 10:48:54;;;;;;;13.60;8.23;;;;;;;4.83;65.34;99627.88;1557418;88;21207;-81
2023/02/26 10:51:25;;;;;;;7.70;4.57;;;;;;;4.97;64.81;99632.30;1400639;88;21250;-82
2023/02/26 11:00:56;;;;;;;9.20;3.57;;;;;;;4.93;63.32;99636.64;1352954;90;22242;-81
2023/02/26 11:03:33;;;;;;;3.70;2.53;;;;;;;4.82;62.24;99644.10;1362388;91;21401;-82
2023/02/26 11:06:05;;;;;;;5.80;3.23;;;;;;;5.07;62.51;99634.16;1479002;91;21406;-81
2023/02/26 11:08:36;;;;;;;8.53;4.00;;;;;;;5.27;62.11;99626.70;1508067;91;22405;-81
2023/02/26 11:11:03;;;;;;;;;;;;;;;5.36;61.50;99633.77;1389936;91;21531;-81
2023/02/26 11:13:33;;;;;;;3.00;2.70;;;;;;;5.56;60.49;99636.45;1356164;91;20243;-81
2023/02/26 11:16:12;;;;;;;7.03;4.73;;;;;;;5.38;58.88;99641.04;1497087;91;22283;-82
2023/02/26 11:18:49;;;;;;;6.30;4.77;;;;;;;5.52;59.42;99627.17;1508080;91;21221;-82
2023/02/26 11:21:24;;;;;;;5.80;3.70;;;;;;;5.58;59.90;99631.88;1420543;91;21347;-81
2023/02/26 11:23:58;;;;;;;6.03;4.20;;;;;;;5.74;60.06;99638.76;1360039;91;21562;-80
2023/02/26 11:26:29;;;;;;;5.03;3.23;;;;;;;5.71;58.11;99641.66;1354249;93;21324;-80
2023/02/26 11:28:57;;;;;;;4.75;3.27;;;;;;;5.31;57.40;99645.14;1477876;91;21516;-82
2023/02/26 11:31:25;;;;;;;4.00;2.57;;;;;;;5.36;58.83;99640.82;1340864;93;21348;-80
2023/02/26 11:34:04;;;;;;;6.37;3.47;;;;;;;5.05;57.45;99638.21;1412685;88;21405;-82
2023/02/26 11:36:33;;;;;;;6.90;4.90;;;;;;;4.77;57.77;99642.34;1544839;88;22220;-82
2023/02/26 11:39:13;;;;;;;4.93;2.80;;;;;;;4.89;59.09;99628.22;1395721;87;21236;-82
2023/02/26 11:41:40;;;;;;;4.20;2.98;;;;;;;4.69;58.47;99630.36;1524208;87;21419;-81
2023/02/26 11:44:14;;;;;;;3.73;2.43;;;;;;;4.77;59.09;99638.89;1453457;87;21523;-81
2023/02/26 11:46:52;;;;;;;4.47;3.03;;;;;;;4.76;58.73;99638.07;1558056;88;21280;-81
2023/02/26 11:49:23;;;;;;;4.13;2.57;;;;;;;4.82;59.24;99651.97;1557107;88;21280;-79
2023/02/26 11:52:09;;;;;;;4.97;2.37;;;;;;;4.62;58.50;99644.95;1557478;87;21147;-81
2023/02/26 11:54:38;;;;;;;7.63;2.73;;;;;;;4.84;59.23;99647.43;1470787;88;21448;-82
2023/02/26 11:57:16;;;;;;;3.60;2.20;;;;;;;4.98;57.96;99653.65;1473168;88;21368;-81
2023/02/26 11:59:50;;;;;;;2.60;1.83;;;;;;;5.04;57.68;99656.72;1478929;87;21475;-83
2023/02/26 12:02:24;;;;;;;2.70;2.17;;;;;;;5.06;57.66;99666.58;1474862;88;21353;-81
2023/02/26 12:04:59;;;;;;;3.00;2.47;;;;;;;5.05;57.70;99667.55;1398082;87;21301;-81
2023/02/26 12:07:27;;;;;;;6.10;2.87;;;;;;;5.19;57.32;99671.13;1506198;87;22344;-81
2023/02/26 12:09:53;;;;;;;3.07;2.30;;;;;;;5.21;57.37;99682.34;1467381;88;21517;-81
2023/02/26 12:12:45;;;;;;;2.47;1.83;;;;;;;5.24;58.20;99683.87;1471783;87;21420;-82